createdAt,value
2022-10-05T00:00:20.824Z,99252.38
2022-10-05T00:02:49.783Z,99249.78
2022-10-05T00:05:33.826Z,99249.59
2022-10-05T00:08:04.930Z,99243.19
2022-10-05T00:10:31.900Z,99233.56
2022-10-05T00:12:58.525Z,99234.31
2022-10-05T00:15:25.298Z,99227.91
2022-10-05T00:17:51.928Z,99236.31
2022-10-05T00:20:26.013Z,99227.53
2022-10-05T00:23:04.274Z,99235.34
2022-10-05T00:25:30.853Z,99226.69
2022-10-05T00:28:00.585Z,99222.09
2022-10-05T00:30:32.364Z,99216.25
2022-10-05T00:32:59.918Z,99213.06
2022-10-05T00:35:29.201Z,99213.47
2022-10-05T00:37:56.217Z,99221.72
2022-10-05T00:40:56.834Z,99220.50
2022-10-05T00:43:35.987Z,99232.31
2022-10-05T00:46:08.692Z,99230.94
2022-10-05T00:48:48.606Z,99233.94
2022-10-05T00:51:24.000Z,99231.56
2022-10-05T00:54:17.481Z,99223.72
2022-10-05T00:56:51.011Z,99221.50
2022-10-05T00:59:37.828Z,99219.91
2022-10-05T01:02:42.804Z,99222.72
2022-10-05T01:05:55.859Z,99218.13
2022-10-05T01:08:28.246Z,99205.91
2022-10-05T01:11:13.751Z,99194.06
2022-10-05T01:13:40.222Z,99194.66
2022-10-05T01:16:14.782Z,99199.28
2022-10-05T01:19:17.798Z,99197.13
2022-10-05T01:22:08.523Z,99204.13
2022-10-05T01:24:47.258Z,99204.31
2022-10-05T01:27:37.504Z,99217.75
2022-10-05T01:30:10.794Z,99216.75
2022-10-05T01:32:59.073Z,99212.34
2022-10-05T01:35:49.303Z,99211.53
2022-10-05T01:38:28.789Z,99211.53
2022-10-05T01:41:03.779Z,99210.34
2022-10-05T01:43:40.832Z,99209.13
2022-10-05T01:46:15.233Z,99213.75
2022-10-05T01:48:44.801Z,99219.78
2022-10-05T01:51:11.127Z,99220.75
2022-10-05T01:53:59.360Z,99208.16
2022-10-05T01:56:39.447Z,99217.75
2022-10-05T01:59:23.363Z,99220.75
2022-10-05T02:02:03.757Z,99224.72
2022-10-05T02:05:00.817Z,99220.72
2022-10-05T02:07:36.803Z,99225.75
2022-10-05T02:10:28.527Z,99216.50
2022-10-05T02:13:04.495Z,99216.53
2022-10-05T02:15:39.022Z,99212.91
2022-10-05T02:18:14.448Z,99210.72
2022-10-05T02:20:42.892Z,99193.69
2022-10-05T02:23:14.884Z,99187.28
2022-10-05T02:25:46.333Z,99183.88
2022-10-05T02:28:22.609Z,99185.88
2022-10-05T02:30:55.648Z,99187.28
2022-10-05T02:33:31.070Z,99185.88
2022-10-05T02:36:24.292Z,99190.25
2022-10-05T02:39:05.430Z,99187.66
2022-10-05T02:41:50.780Z,99184.06
2022-10-05T02:44:52.441Z,99180.66
2022-10-05T02:47:29.762Z,99187.84
2022-10-05T02:50:02.281Z,99188.84
2022-10-05T02:52:44.923Z,99187.66
2022-10-05T02:55:39.613Z,99180.22
2022-10-05T02:58:13.547Z,99186.06
2022-10-05T03:00:50.768Z,99190.03
2022-10-05T03:03:38.076Z,99188.84
2022-10-05T03:06:13.040Z,99180.66
2022-10-05T03:08:52.993Z,99181.63
2022-10-05T03:11:48.229Z,99177.84
2022-10-05T03:14:23.596Z,99174.84
2022-10-05T03:17:13.055Z,99164.03
2022-10-05T03:20:07.333Z,99169.66
2022-10-05T03:23:04.208Z,99165.25
2022-10-05T03:25:58.661Z,99158.81
2022-10-05T03:29:02.839Z,99156.19
2022-10-05T03:31:48.978Z,99164.59
2022-10-05T03:34:35.125Z,99160.22
2022-10-05T03:37:20.150Z,99157.00
2022-10-05T03:39:54.802Z,99162.59
2022-10-05T03:42:35.651Z,99161.97
2022-10-05T03:45:23.976Z,99150.97
2022-10-05T03:48:25.903Z,99152.41
2022-10-05T03:51:07.654Z,99144.19
2022-10-05T03:53:52.875Z,99149.59
2022-10-05T03:56:25.474Z,99141.56
2022-10-05T03:59:14.257Z,99141.16
2022-10-05T04:01:51.508Z,99139.97
2022-10-05T04:04:27.540Z,99148.56
2022-10-05T04:06:57.802Z,99145.56
2022-10-05T04:09:30.622Z,99135.38
2022-10-05T04:12:03.202Z,99140.78
2022-10-05T04:14:38.838Z,99140.78
2022-10-05T04:17:11.783Z,99145.16
2022-10-05T04:20:04.938Z,99145.97
2022-10-05T04:22:43.225Z,99146.97
2022-10-05T04:25:21.460Z,99148.19
2022-10-05T04:27:56.907Z,99145.19
2022-10-05T04:30:23.555Z,99143.78
2022-10-05T04:32:57.203Z,99149.00
2022-10-05T04:35:38.485Z,99146.00
2022-10-05T04:38:32.618Z,99151.19
2022-10-05T04:41:16.888Z,99147.00
2022-10-05T04:44:09.747Z,99160.19
2022-10-05T04:47:08.892Z,99160.81
2022-10-05T04:50:01.897Z,99167.59
2022-10-05T04:52:49.528Z,99161.41
2022-10-05T04:55:22.950Z,99162.78
2022-10-05T04:58:14.455Z,99158.19
2022-10-05T05:04:30.281Z,99154.38
2022-10-05T05:07:15.800Z,99155.53
2022-10-05T05:10:03.360Z,99151.16
2022-10-05T05:13:07.537Z,99154.94
2022-10-05T05:15:51.588Z,99156.34
2022-10-05T05:18:24.193Z,99157.34
2022-10-05T05:21:21.980Z,99158.56
2022-10-05T05:24:13.458Z,99159.16
2022-10-05T05:27:11.496Z,99161.19
2022-10-05T05:30:16.114Z,99167.19
2022-10-05T05:33:18.262Z,99174.59
2022-10-05T05:36:24.014Z,99179.78
2022-10-05T05:39:00.986Z,99176.78
2022-10-05T05:41:39.636Z,99187.81
2022-10-05T05:44:39.080Z,99186.03
2022-10-05T05:47:31.506Z,99189.41
2022-10-05T05:50:11.998Z,99186.38
2022-10-05T05:53:06.292Z,99195.41
2022-10-05T05:55:41.977Z,99192.00
2022-10-05T05:58:27.436Z,99192.63
2022-10-05T06:01:20.236Z,99189.22
2022-10-05T06:04:04.800Z,99183.00
2022-10-05T06:09:33.088Z,99189.03
2022-10-05T06:12:10.213Z,99185.84
2022-10-05T06:14:45.457Z,99191.84
2022-10-05T06:17:32.947Z,99200.06
2022-10-05T06:20:05.421Z,99204.69
2022-10-05T06:22:47.489Z,99213.53
2022-10-05T06:25:15.272Z,99214.94
2022-10-05T06:28:09.642Z,99217.56
2022-10-05T06:30:57.877Z,99219.16
2022-10-05T06:33:54.282Z,99225.75
2022-10-05T06:36:49.895Z,99224.69
2022-10-05T06:39:36.877Z,99217.84
2022-10-05T06:42:27.048Z,99218.34
2022-10-05T06:45:04.563Z,99221.88
2022-10-05T06:47:55.581Z,99223.22
2022-10-05T06:50:38.087Z,99221.16
2022-10-05T06:53:37.065Z,99231.09
2022-10-05T06:56:20.835Z,99232.41
2022-10-05T06:59:00.725Z,99224.09
2022-10-05T07:01:56.885Z,99228.66
2022-10-05T07:05:02.023Z,99223.75
2022-10-05T07:07:51.635Z,99232.38
2022-10-05T07:10:52.488Z,99234.41
2022-10-05T07:14:27.061Z,99231.53
2022-10-05T07:17:15.401Z,99229.22
2022-10-05T07:19:56.604Z,99221.44
2022-10-05T07:22:34.237Z,99221.44
2022-10-05T07:25:06.890Z,99216.06
2022-10-05T07:27:37.037Z,99213.97
2022-10-05T07:30:03.528Z,99208.63
2022-10-05T07:32:40.214Z,99208.59
2022-10-05T07:35:49.694Z,99209.56
2022-10-05T07:38:23.503Z,99205.09
2022-10-05T07:41:02.600Z,99204.06
2022-10-05T07:44:02.890Z,99207.25
2022-10-05T07:46:57.095Z,99202.69
2022-10-05T07:49:24.596Z,99212.06
2022-10-05T07:52:09.324Z,99212.13
2022-10-05T07:55:01.756Z,99221.47
2022-10-05T07:58:08.025Z,99211.66
2022-10-05T08:00:48.723Z,99215.38
2022-10-05T08:03:30.085Z,99223.41
2022-10-05T08:08:57.326Z,99209.38
2022-10-05T08:11:53.603Z,99208.09
2022-10-05T08:14:37.917Z,99202.97
2022-10-05T08:17:19.849Z,99205.59
2022-10-05T08:19:59.673Z,99204.47
2022-10-05T08:22:35.301Z,99209.19
2022-10-05T08:25:15.280Z,99194.81
2022-10-05T08:28:21.641Z,99200.97
2022-10-05T08:31:16.992Z,99199.84
2022-10-05T08:34:41.257Z,99197.59
2022-10-05T08:37:31.245Z,99197.47
2022-10-05T08:40:30.212Z,99192.31
2022-10-05T08:43:09.470Z,99191.91
2022-10-05T08:46:19.682Z,99191.44
2022-10-05T08:49:10.461Z,99192.38
2022-10-05T08:52:01.723Z,99187.03
2022-10-05T08:54:28.357Z,99181.78
2022-10-05T08:57:17.124Z,99177.75
2022-10-05T09:00:05.677Z,99177.22
2022-10-05T09:02:54.194Z,99181.88
2022-10-05T09:06:21.274Z,99182.34
2022-10-05T09:08:58.243Z,99177.47
2022-10-05T09:11:32.619Z,99183.09
2022-10-05T09:14:20.519Z,99177.34
2022-10-05T09:17:04.171Z,99176.78
2022-10-05T09:20:04.524Z,99171.69
2022-10-05T09:22:41.509Z,99172.75
2022-10-05T09:25:20.983Z,99162.78
2022-10-05T09:28:07.851Z,99170.19
2022-10-05T09:30:52.779Z,99168.97
2022-10-05T09:33:40.160Z,99164.84
2022-10-05T09:36:39.505Z,99163.44
2022-10-05T09:39:43.421Z,99160.69
2022-10-05T09:42:35.857Z,99154.72
2022-10-05T09:45:39.148Z,99160.41
2022-10-05T09:48:35.428Z,99160.56
2022-10-05T09:51:39.535Z,99154.78
2022-10-05T09:57:37.369Z,99148.50
2022-10-05T10:00:28.030Z,99144.34
2022-10-05T10:03:17.847Z,99154.44
2022-10-05T10:09:23.835Z,99151.28
2022-10-05T10:12:22.037Z,99139.97
2022-10-05T10:20:52.626Z,99141.75
2022-10-05T10:24:04.729Z,99140.84
2022-10-05T10:26:50.398Z,99149.28
2022-10-05T10:29:57.447Z,99137.25
2022-10-05T10:32:49.593Z,99140.16
2022-10-05T10:35:36.920Z,99139.31
2022-10-05T10:38:39.772Z,99133.03
2022-10-05T10:41:51.621Z,99134.66
2022-10-05T10:44:47.549Z,99121.28
2022-10-05T10:47:34.498Z,99129.28
2022-10-05T10:50:26.921Z,99127.31
2022-10-05T10:53:28.744Z,99128.53
2022-10-05T10:56:50.430Z,99121.47
2022-10-05T10:59:41.443Z,99120.78
2022-10-05T11:02:45.531Z,99118.81
2022-10-05T11:05:18.785Z,99111.66
2022-10-05T11:08:06.943Z,99115.34
2022-10-05T11:10:50.085Z,99102.22
2022-10-05T11:13:37.828Z,99103.16
2022-10-05T11:16:35.278Z,99103.28
2022-10-05T11:19:02.777Z,99092.78
2022-10-05T11:25:26.771Z,99095.91
2022-10-05T11:28:04.417Z,99085.75
2022-10-05T11:31:04.820Z,99085.28
2022-10-05T11:34:21.131Z,99085.34
2022-10-05T11:36:56.133Z,99077.06
2022-10-05T11:39:43.455Z,99073.47
2022-10-05T11:42:48.663Z,99074.59
2022-10-05T11:45:24.606Z,99074.50
2022-10-05T11:48:21.890Z,99071.09
2022-10-05T11:51:19.078Z,99063.97
2022-10-05T11:54:27.207Z,99064.81
2022-10-05T11:57:19.851Z,99060.44
2022-10-05T12:00:13.830Z,99050.66
2022-10-05T12:02:58.381Z,99046.72
2022-10-05T12:05:50.095Z,99044.28
2022-10-05T12:08:28.220Z,99051.75
2022-10-05T12:11:29.780Z,99048.94
2022-10-05T12:14:26.451Z,99051.13
2022-10-05T12:19:58.314Z,99052.97
2022-10-05T12:22:42.103Z,99048.53
2022-10-05T12:26:03.380Z,99049.91
2022-10-05T12:28:53.783Z,99047.47
2022-10-05T12:31:46.883Z,99051.53
2022-10-05T12:34:21.030Z,99051.66
2022-10-05T12:37:13.005Z,99049.53
2022-10-05T12:39:54.080Z,99055.25
2022-10-05T12:42:31.206Z,99050.25
2022-10-05T12:45:09.496Z,99053.97
2022-10-05T12:47:58.780Z,99040.47
2022-10-05T12:50:34.423Z,99044.94
2022-10-05T12:53:19.376Z,99048.84
2022-10-05T12:55:50.698Z,99049.25
2022-10-05T12:58:22.609Z,99044.69
2022-10-05T13:00:58.637Z,99048.03
2022-10-05T13:03:31.259Z,99039.78
2022-10-05T13:06:08.381Z,99048.50
2022-10-05T13:09:10.604Z,99042.03
2022-10-05T13:11:49.621Z,99039.91
2022-10-05T13:14:34.296Z,99042.84
2022-10-05T13:17:15.693Z,99037.56
2022-10-05T13:19:50.189Z,99031.28
2022-10-05T13:22:35.799Z,99023.31
2022-10-05T13:25:15.371Z,99024.25
2022-10-05T13:27:47.436Z,99015.81
2022-10-05T13:30:18.744Z,99018.38
2022-10-05T13:33:05.039Z,99010.84
2022-10-05T13:35:44.250Z,99013.56
2022-10-05T13:38:31.264Z,99013.16
2022-10-05T13:41:15.704Z,99012.22
2022-10-05T13:43:53.861Z,99002.19
2022-10-05T13:46:28.626Z,99011.75
2022-10-05T13:49:38.928Z,99015.19
2022-10-05T13:52:09.333Z,99014.44
2022-10-05T13:54:54.949Z,99010.78
2022-10-05T13:57:44.879Z,99005.03
2022-10-05T14:00:16.700Z,99007.97
2022-10-05T14:02:47.918Z,99006.47
2022-10-05T14:05:18.028Z,99003.81
2022-10-05T14:07:50.432Z,99004.22
2022-10-05T14:10:29.643Z,99000.47
2022-10-05T14:12:56.147Z,98998.69
2022-10-05T14:15:30.796Z,99001.50
2022-10-05T14:17:57.437Z,98998.19
2022-10-05T14:20:27.336Z,98996.13
2022-10-05T14:23:17.392Z,98992.88
2022-10-05T14:25:54.107Z,98980.78
2022-10-05T14:28:20.786Z,98990.00
2022-10-05T14:30:59.447Z,98979.59
2022-10-05T14:33:32.387Z,98978.75
2022-10-05T14:35:59.972Z,98982.19
2022-10-05T14:38:53.963Z,98977.94
2022-10-05T14:41:25.438Z,98973.34
2022-10-05T14:43:53.368Z,98972.84
2022-10-05T14:46:27.841Z,98969.81
2022-10-05T14:49:24.613Z,98972.78
2022-10-05T14:51:54.404Z,98964.34
2022-10-05T14:54:54.019Z,98966.53
2022-10-05T14:57:34.197Z,98955.75
2022-10-05T15:00:10.618Z,98954.19
2022-10-05T15:03:05.182Z,98949.44
2022-10-05T15:05:37.756Z,98945.53
2022-10-05T15:08:27.842Z,98954.56
2022-10-05T15:11:06.372Z,98957.47
2022-10-05T15:13:43.571Z,98950.31
2022-10-05T15:16:39.188Z,98954.63
2022-10-05T15:19:16.173Z,98955.16
2022-10-05T15:21:45.735Z,98952.56
2022-10-05T15:24:19.944Z,98949.72
2022-10-05T15:26:53.953Z,98945.84
2022-10-05T15:29:53.563Z,98944.81
2022-10-05T15:32:46.738Z,98943.09
2022-10-05T15:35:38.410Z,98948.91
2022-10-05T15:38:21.089Z,98944.97
2022-10-05T15:41:23.208Z,98944.81
2022-10-05T15:44:10.125Z,98939.88
2022-10-05T15:46:57.469Z,98948.97
2022-10-05T15:49:47.759Z,98951.97
2022-10-05T15:52:30.080Z,98938.31
2022-10-05T15:55:17.858Z,98944.47
2022-10-05T15:58:17.516Z,98940.28
2022-10-05T16:01:18.829Z,98939.56
2022-10-05T16:03:59.367Z,98942.78
2022-10-05T16:07:08.803Z,98946.06
2022-10-05T16:09:58.998Z,98938.91
2022-10-05T16:12:46.033Z,98944.81
2022-10-05T16:15:38.837Z,98937.97
2022-10-05T16:18:30.245Z,98944.94
2022-10-05T16:21:21.189Z,98949.00
2022-10-05T16:24:22.976Z,98949.03
2022-10-05T16:26:57.608Z,98960.72
2022-10-05T16:29:48.548Z,98956.56
2022-10-05T16:32:33.797Z,98956.63
2022-10-05T16:35:17.875Z,98955.63
2022-10-05T16:38:08.057Z,98959.66
2022-10-05T16:41:01.983Z,98962.09
2022-10-05T16:43:49.716Z,98966.38
2022-10-05T16:46:53.163Z,98965.66
2022-10-05T16:49:41.286Z,98967.28
2022-10-05T16:52:11.949Z,98969.38
2022-10-05T16:54:48.111Z,98962.81
2022-10-05T16:57:22.458Z,98978.72
2022-10-05T17:00:17.585Z,98975.56
2022-10-05T17:03:11.328Z,98986.72
2022-10-05T17:05:55.876Z,98983.81
2022-10-05T17:08:46.106Z,98988.31
2022-10-05T17:11:28.256Z,98982.25
2022-10-05T17:14:42.861Z,98984.09
2022-10-05T17:17:27.767Z,98987.53
2022-10-05T17:20:09.484Z,98995.97
2022-10-05T17:23:05.259Z,98995.72
2022-10-05T17:25:35.052Z,98994.66
2022-10-05T17:28:36.280Z,99007.59
2022-10-05T17:31:21.914Z,99001.50
2022-10-05T17:34:26.434Z,99007.81
2022-10-05T17:37:17.685Z,99006.97
2022-10-05T17:39:50.860Z,99012.00
2022-10-05T17:42:43.589Z,99008.81
2022-10-05T17:45:11.910Z,99013.28
2022-10-05T17:48:09.704Z,99018.22
2022-10-05T17:51:04.776Z,99022.94
2022-10-05T17:54:11.069Z,99021.88
2022-10-05T17:56:46.657Z,99022.63
2022-10-05T17:59:45.769Z,99019.41
2022-10-05T18:02:22.069Z,99026.50
2022-10-05T18:05:00.711Z,99022.00
2022-10-05T18:07:32.642Z,99021.16
2022-10-05T18:10:17.630Z,99020.31
2022-10-05T18:12:59.474Z,99026.13
2022-10-05T18:15:25.931Z,99027.44
2022-10-05T18:18:34.968Z,99027.72
2022-10-05T18:21:24.891Z,99038.22
2022-10-05T18:23:58.805Z,99035.31
2022-10-05T18:26:43.980Z,99035.22
2022-10-05T18:30:01.049Z,99036.03
2022-10-05T18:32:44.312Z,99039.69
2022-10-05T18:35:24.811Z,99040.47
2022-10-05T18:38:13.159Z,99043.38
2022-10-05T18:40:50.657Z,99050.38
2022-10-05T18:43:35.928Z,99046.66
2022-10-05T18:46:16.884Z,99050.63
2022-10-05T18:49:07.807Z,99050.59
2022-10-05T18:51:52.017Z,99043.91
2022-10-05T18:54:25.588Z,99062.06
2022-10-05T18:56:53.095Z,99055.47
2022-10-05T18:59:41.126Z,99058.56
2022-10-05T19:02:30.735Z,99061.91
2022-10-05T19:05:46.381Z,99064.25
2022-10-05T19:08:33.009Z,99070.25
2022-10-05T19:11:15.964Z,99068.69
2022-10-05T19:14:00.886Z,99070.25
2022-10-05T19:16:54.633Z,99070.72
2022-10-05T19:19:44.019Z,99080.66
2022-10-05T19:22:40.396Z,99074.81
2022-10-05T19:25:51.488Z,99084.81
2022-10-05T19:28:18.086Z,99085.00
2022-10-05T19:31:05.945Z,99085.44
2022-10-05T19:33:58.005Z,99091.94
2022-10-05T19:36:40.170Z,99094.25
2022-10-05T19:39:15.875Z,99098.66
2022-10-05T19:41:56.953Z,99109.69
2022-10-05T19:44:54.320Z,99111.97
2022-10-05T19:47:29.745Z,99118.47
2022-10-05T19:49:57.869Z,99123.97
2022-10-05T19:52:36.148Z,99126.78
2022-10-05T19:55:12.699Z,99133.56
2022-10-05T19:57:47.615Z,99134.06
2022-10-05T20:00:31.198Z,99140.09
2022-10-05T20:03:17.761Z,99145.03
2022-10-05T20:05:44.712Z,99141.38
2022-10-05T20:08:19.713Z,99144.69
2022-10-05T20:11:07.689Z,99148.03
2022-10-05T20:13:35.868Z,99159.84
2022-10-05T20:16:29.332Z,99166.53
2022-10-05T20:19:14.398Z,99170.19
2022-10-05T20:22:00.391Z,99175.94
2022-10-05T20:24:31.966Z,99180.41
2022-10-05T20:27:05.947Z,99181.13
2022-10-05T20:29:40.564Z,99186.59
2022-10-05T20:32:12.280Z,99188.91
2022-10-05T20:34:43.590Z,99190.97
2022-10-05T20:37:12.039Z,99188.28
2022-10-05T20:39:39.488Z,99191.94
2022-10-05T20:42:07.652Z,99197.91
2022-10-05T20:44:35.113Z,99206.72
2022-10-05T20:47:01.672Z,99207.19
2022-10-05T20:49:30.954Z,99214.19
2022-10-05T20:51:58.641Z,99217.19
2022-10-05T20:54:27.098Z,99222.69
2022-10-05T20:56:55.704Z,99222.13
2022-10-05T20:59:23.625Z,99227.75
2022-10-05T21:01:50.461Z,99226.25
2022-10-05T21:04:19.293Z,99232.53
2022-10-05T21:06:46.800Z,99237.47
2022-10-05T21:09:15.030Z,99241.13
2022-10-05T21:11:42.536Z,99236.47
2022-10-05T21:14:10.542Z,99245.72
2022-10-05T21:16:38.362Z,99244.00
2022-10-05T21:19:06.972Z,99245.84
2022-10-05T21:21:33.516Z,99255.22
2022-10-05T21:24:00.646Z,99254.31
2022-10-05T21:26:30.422Z,99265.50
2022-10-05T21:28:58.407Z,99259.91
2022-10-05T21:31:26.570Z,99263.00
2022-10-05T21:33:53.937Z,99267.94
2022-10-05T21:36:24.550Z,99270.19
2022-10-05T21:38:52.857Z,99269.41
2022-10-05T21:41:20.085Z,99279.44
2022-10-05T21:43:46.759Z,99277.03
2022-10-05T21:46:17.348Z,99276.91
2022-10-05T21:48:44.006Z,99286.72
2022-10-05T21:51:13.804Z,99296.22
2022-10-05T21:53:47.021Z,99301.88
2022-10-05T21:56:20.306Z,99296.09
2022-10-05T21:58:47.587Z,99306.81
2022-10-05T22:01:16.832Z,99306.00
2022-10-05T22:03:45.422Z,99304.84
2022-10-05T22:06:11.914Z,99306.13
2022-10-05T22:08:39.044Z,99312.59
2022-10-05T22:11:11.379Z,99312.50
2022-10-05T22:13:49.895Z,99305.41
2022-10-05T22:16:19.152Z,99310.66
2022-10-05T22:18:46.112Z,99310.56
2022-10-05T22:21:15.309Z,99311.59
2022-10-05T22:23:43.900Z,99318.19
2022-10-05T22:26:15.067Z,99323.78
2022-10-05T22:28:42.933Z,99327.22
2022-10-05T22:31:12.533Z,99325.38
2022-10-05T22:33:39.533Z,99328.00
2022-10-05T22:36:07.613Z,99333.03
2022-10-05T22:38:34.188Z,99333.84
2022-10-05T22:41:00.719Z,99339.22
2022-10-05T22:43:27.259Z,99338.41
2022-10-05T22:45:54.676Z,99337.50
2022-10-05T22:48:21.306Z,99345.59
2022-10-05T22:50:47.977Z,99345.81
2022-10-05T22:53:14.660Z,99344.56
2022-10-05T22:55:41.302Z,99348.31
2022-10-05T22:58:07.852Z,99350.41
2022-10-05T23:00:56.347Z,99354.97
2022-10-05T23:03:23.444Z,99346.28
2022-10-05T23:05:57.208Z,99349.34
2022-10-05T23:08:24.267Z,99346.16
2022-10-05T23:10:53.550Z,99346.97
2022-10-05T23:13:21.205Z,99345.56
2022-10-05T23:15:47.684Z,99350.25
2022-10-05T23:18:16.641Z,99349.47
2022-10-05T23:20:43.350Z,99351.97
2022-10-05T23:23:10.202Z,99348.31
2022-10-05T23:25:36.951Z,99349.56
2022-10-05T23:28:03.593Z,99355.72
2022-10-05T23:30:30.779Z,99357.19
2022-10-05T23:32:57.379Z,99355.66
2022-10-05T23:35:23.947Z,99361.63
2022-10-05T23:37:50.459Z,99360.69
2022-10-05T23:40:17.295Z,99366.94
2022-10-05T23:42:43.913Z,99368.75
2022-10-05T23:45:12.071Z,99370.00
2022-10-05T23:47:40.337Z,99374.22
2022-10-05T23:50:08.717Z,99379.78
2022-10-05T23:52:36.433Z,99376.00
2022-10-05T23:55:05.005Z,99386.34
2022-10-05T23:57:32.130Z,99385.19
2022-10-05T23:59:58.748Z,99389.28
